Time;durP1;ratioP1;P1;durP2;ratioP2;P2;SDS_P1;SDS_P2;PMS_P1;PMS_P2;Temp;Humidity;BMP_temperature;BMP_pressure;BME280_temperature;BME280_humidity;BME280_pressure;Samples;Min_cycle;Max_cycle;Signal;HPM_P1;HPM_P2
2022/10/01 00:00:07;;;;;;;2.42;2.22;;;;;17.50;100104.00;;;;5010212;28;20701;-80
2022/10/01 00:02:37;;;;;;;5.88;2.45;;;;;17.50;100091.00;;;;5006444;28;20241;-81
2022/10/01 00:05:09;;;;;;;2.95;2.05;;;;;17.50;100087.00;;;;5002572;28;20209;-79
2022/10/01 00:07:38;;;;;;;2.25;2.05;;;;;17.50;100086.00;;;;5006884;28;20189;-81
2022/10/01 00:10:06;;;;;;;2.50;2.30;;;;;17.50;100076.00;;;;5010587;28;20618;-79
2022/10/01 00:12:34;;;;;;;5.18;2.25;;;;;17.40;100067.00;;;;5010240;28;20232;-80
2022/10/01 00:15:02;;;;;;;2.15;1.95;;;;;17.40;100055.00;;;;5009636;28;20201;-79
2022/10/01 00:17:29;;;;;;;2.85;2.17;;;;;17.40;100063.00;;;;5007936;28;20663;-80
2022/10/01 00:19:56;;;;;;;5.07;2.25;;;;;17.40;100061.00;;;;5005513;28;20205;-79
2022/10/01 00:22:25;;;;;;;2.40;2.20;;;;;17.40;100076.00;;;;5009237;28;20193;-79
2022/10/01 00:24:52;;;;;;;2.45;2.25;;;;;17.40;100059.00;;;;5012683;28;20406;-78
2022/10/01 00:27:20;;;;;;;3.90;2.08;;;;;17.40;100056.00;;;;5018580;28;20189;-80
2022/10/01 00:29:47;;;;;;;2.70;2.17;;;;;17.40;100052.00;;;;5010647;28;20240;-80
2022/10/01 00:32:14;;;;;;;4.05;2.15;;;;;17.40;100051.00;;;;5008662;28;20224;-80
2022/10/01 00:34:42;;;;;;;2.30;1.98;;;;;17.40;100046.00;;;;5010231;28;20192;-79
2022/10/01 00:37:09;;;;;;;2.70;2.10;;;;;17.40;100039.00;;;;5007442;28;20247;-80
2022/10/01 00:39:38;;;;;;;2.47;1.90;;;;;17.40;100010.00;;;;5010766;28;20201;-81
2022/10/01 00:42:17;;;;;;;3.38;2.10;;;;;17.30;100003.00;;;;5006503;28;20202;-79
2022/10/01 00:44:45;;;;;;;4.07;2.00;;;;;17.30;99991.00;;;;5008785;28;20247;-82
2022/10/01 00:47:21;;;;;;;2.42;2.03;;;;;17.20;99972.00;;;;5007231;28;20206;-80
2022/10/01 00:49:52;;;;;;;2.42;2.10;;;;;17.30;99955.00;;;;5008520;28;20204;-79
2022/10/01 00:52:24;;;;;;;2.30;1.95;;;;;17.30;99948.00;;;;5008155;28;20224;-79
2022/10/01 00:54:57;;;;;;;2.80;2.08;;;;;17.30;99950.00;;;;5005633;28;20205;-80
2022/10/01 00:57:27;;;;;;;2.05;1.63;;;;;17.30;99965.00;;;;5013016;28;20584;-79
2022/10/01 00:59:58;;;;;;;1.67;1.50;;;;;17.30;99963.00;;;;5010075;28;20225;-79
2022/10/01 01:02:26;;;;;;;2.50;2.10;;;;;17.30;99945.00;;;;5008242;28;20223;-80
2022/10/01 01:04:53;;;;;;;2.72;1.83;;;;;17.30;99933.00;;;;5006757;28;20205;-81
2022/10/01 01:07:21;;;;;;;2.42;1.95;;;;;17.30;99932.00;;;;5009212;28;20193;-80
2022/10/01 01:09:50;;;;;;;2.03;1.63;;;;;17.30;99927.00;;;;5009423;28;20231;-80
2022/10/01 01:12:47;;;;;;;2.38;1.70;;;;;17.20;99918.00;;;;5005713;28;20224;-80
2022/10/01 01:15:21;;;;;;;1.90;1.60;;;;;17.30;99931.00;;;;5008048;28;20251;-80
2022/10/01 01:17:56;;;;;;;1.55;1.45;;;;;17.20;99933.00;;;;5009603;28;20203;-79
2022/10/01 01:20:47;;;;;;;2.10;1.85;;;;;17.20;99901.00;;;;5018249;28;20196;-79
2022/10/01 01:23:42;;;;;;;1.95;1.42;;;;;17.20;99888.00;;;;5007984;28;20205;-80
2022/10/01 01:26:19;;;;;;;1.65;1.38;;;;;17.20;99882.00;;;;5008539;28;20201;-78
2022/10/01 01:28:51;;;;;;;2.13;1.30;;;;;17.20;99879.00;;;;4998415;28;20208;-80
2022/10/01 01:31:24;;;;;;;3.63;1.40;;;;;17.30;99877.00;;;;5007949;28;20705;-79
2022/10/01 01:33:54;;;;;;;1.50;1.40;;;;;17.30;99861.00;;;;5007258;28;20212;-78
2022/10/01 01:36:27;;;;;;;4.85;1.60;;;;;17.20;99847.00;;;;5008696;28;20299;-79
2022/10/01 01:39:00;;;;;;;2.85;1.35;;;;;17.20;99829.00;;;;5008855;28;20205;-79
2022/10/01 01:41:34;;;;;;;1.95;1.58;;;;;17.20;99845.00;;;;5003786;28;20221;-78
2022/10/01 01:44:07;;;;;;;1.50;1.27;;;;;17.20;99830.00;;;;5008033;28;20236;-78
2022/10/01 01:46:37;;;;;;;1.63;1.15;;;;;17.20;99835.00;;;;4990536;28;20284;-80
2022/10/01 01:49:06;;;;;;;1.50;1.20;;;;;17.20;99827.00;;;;5010903;28;20576;-79
2022/10/01 01:51:41;;;;;;;1.45;1.35;;;;;17.20;99829.00;;;;5008087;28;20224;-78
2022/10/01 01:54:09;;;;;;;2.58;1.00;;;;;17.20;99825.00;;;;5007669;28;20189;-78
2022/10/01 01:56:36;;;;;;;2.50;1.10;;;;;17.20;99811.00;;;;5009353;28;20196;-80
2022/10/01 01:59:07;;;;;;;1.83;1.30;;;;;17.20;99826.00;;;;5007140;28;20240;-80
2022/10/01 02:01:36;;;;;;;1.30;1.20;;;;;17.20;99817.00;;;;4991873;28;20205;-78
2022/10/01 02:04:07;;;;;;;1.98;1.25;;;;;17.20;99813.00;;;;5007270;28;20547;-80
2022/10/01 02:06:48;;;;;;;1.77;1.30;;;;;17.10;99825.00;;;;5008042;28;20271;-79
2022/10/01 02:09:24;;;;;;;1.58;1.27;;;;;17.20;99818.00;;;;5006181;28;20571;-79
2022/10/01 02:12:07;;;;;;;3.03;1.10;;;;;17.20;99826.00;;;;5005661;28;20617;-78
2022/10/01 02:14:46;;;;;;;1.20;1.10;;;;;17.20;99808.00;;;;5007952;28;20197;-79
2022/10/01 02:17:21;;;;;;;1.30;1.20;;;;;17.20;99811.00;;;;5009005;28;20578;-79
2022/10/01 02:19:57;;;;;;;1.15;1.05;;;;;17.20;99820.00;;;;4999414;28;20216;-80
2022/10/01 02:22:31;;;;;;;1.23;1.00;;;;;17.20;99827.00;;;;5007009;28;20200;-79
2022/10/01 02:25:01;;;;;;;1.42;1.02;;;;;17.20;99821.00;;;;5008082;28;20208;-79
2022/10/01 02:27:33;;;;;;;0.95;0.77;;;;;17.20;99826.00;;;;5004101;28;20197;-79
2022/10/01 02:30:06;;;;;;;1.77;0.90;;;;;17.20;99796.00;;;;5023793;28;20212;-78
2022/10/01 02:32:36;;;;;;;1.25;0.80;;;;;17.20;99804.00;;;;5006673;28;20768;-79
2022/10/01 02:35:06;;;;;;;1.23;0.77;;;;;17.20;99804.00;;;;5007076;28;20243;-80
2022/10/01 02:37:36;;;;;;;0.73;0.65;;;;;17.20;99821.00;;;;5006468;28;20220;-80
2022/10/01 02:40:07;;;;;;;1.15;0.75;;;;;17.30;99804.00;;;;4996023;28;20204;-79
2022/10/01 02:42:37;;;;;;;0.95;0.50;;;;;17.30;99800.00;;;;5011020;28;20201;-80
2022/10/01 02:45:07;;;;;;;0.88;0.70;;;;;17.30;99802.00;;;;5011798;28;20555;-80
2022/10/01 02:47:40;;;;;;;0.93;0.52;;;;;17.30;99804.00;;;;5011843;28;20200;-79
2022/10/01 02:50:09;;;;;;;1.55;1.05;;;;;17.30;99822.00;;;;5003475;28;20255;-80
2022/10/01 02:52:41;;;;;;;0.60;0.40;;;;;17.30;99824.00;;;;5006382;28;20256;-79
2022/10/01 02:55:13;;;;;;;1.13;0.57;;;;;17.40;99826.00;;;;5010406;28;20201;-79
2022/10/01 02:57:40;;;;;;;0.60;0.50;;;;;17.40;99821.00;;;;5012735;28;20189;-80
2022/10/01 03:00:13;;;;;;;0.47;0.43;;;;;17.30;99806.00;;;;5010318;28;20223;-79
2022/10/01 03:02:40;;;;;;;0.75;0.50;;;;;17.40;99810.00;;;;5000034;28;20200;-78
2022/10/01 03:05:08;;;;;;;0.52;0.40;;;;;17.40;99808.00;;;;5009844;28;20197;-80
2022/10/01 03:07:36;;;;;;;1.08;0.70;;;;;17.40;99805.00;;;;5011370;28;20635;-81
2022/10/01 03:10:04;;;;;;;1.15;0.50;;;;;17.40;99808.00;;;;5009592;28;20221;-79
2022/10/01 03:12:32;;;;;;;1.00;0.70;;;;;17.40;99817.00;;;;5021256;28;20227;-78
2022/10/01 03:14:59;;;;;;;2.28;0.50;;;;;17.40;99810.00;;;;5010517;28;20200;-80
2022/10/01 03:17:28;;;;;;;0.57;0.38;;;;;17.40;99803.00;;;;5011692;28;20204;-79
2022/10/01 03:19:55;;;;;;;1.00;0.60;;;;;17.50;99798.00;;;;5010436;28;20204;-78
2022/10/01 03:22:23;;;;;;;0.70;0.60;;;;;17.50;99805.00;;;;5009642;28;20200;-77
2022/10/01 03:24:51;;;;;;;0.70;0.55;;;;;17.50;99793.00;;;;5011727;28;20216;-79
2022/10/01 03:27:19;;;;;;;0.70;0.40;;;;;17.50;99788.00;;;;5010026;28;20209;-79
2022/10/01 03:29:48;;;;;;;1.38;0.73;;;;;17.50;99786.00;;;;5031235;28;20708;-80
2022/10/01 03:32:16;;;;;;;1.15;0.63;;;;;17.50;99787.00;;;;5009066;28;20229;-79
2022/10/01 03:34:45;;;;;;;1.23;0.47;;;;;17.50;99787.00;;;;5011327;28;20205;-79
2022/10/01 03:37:12;;;;;;;0.68;0.40;;;;;17.50;99782.00;;;;5009919;28;20660;-79
2022/10/01 03:39:39;;;;;;;0.82;0.40;;;;;17.50;99787.00;;;;5010310;28;20189;-79
2022/10/01 03:42:07;;;;;;;0.60;0.60;;;;;17.60;99783.00;;;;5007354;28;20208;-80
2022/10/01 03:44:34;;;;;;;0.60;0.60;;;;;17.60;99786.00;;;;4998322;28;20210;-80
2022/10/01 03:47:01;;;;;;;1.30;0.60;;;;;17.60;99787.00;;;;4998930;28;20197;-81
2022/10/01 03:49:29;;;;;;;0.80;0.55;;;;;17.60;99788.00;;;;5010507;28;20235;-80
2022/10/01 03:51:58;;;;;;;0.60;0.50;;;;;17.60;99790.00;;;;5008306;28;20221;-80
2022/10/01 03:54:25;;;;;;;0.75;0.50;;;;;17.60;99785.00;;;;5011192;28;20312;-81
2022/10/01 03:56:52;;;;;;;0.70;0.52;;;;;17.70;99795.00;;;;5009568;28;20200;-81
2022/10/01 03:59:20;;;;;;;0.70;0.57;;;;;17.70;99791.00;;;;5009677;28;20236;-80
2022/10/01 04:01:47;;;;;;;1.23;0.50;;;;;17.70;99791.00;;;;5002039;28;20262;-80
2022/10/01 04:04:14;;;;;;;0.65;0.63;;;;;17.70;99781.00;;;;5029236;28;20200;-79
2022/10/01 04:06:42;;;;;;;1.92;0.73;;;;;17.80;99788.00;;;;5030066;28;20285;-79
2022/10/01 04:09:10;;;;;;;0.90;0.63;;;;;17.80;99794.00;;;;5008673;28;20224;-79
2022/10/01 04:11:38;;;;;;;0.90;0.57;;;;;17.80;99788.00;;;;5008081;28;20216;-80
2022/10/01 04:14:05;;;;;;;1.77;0.70;;;;;17.80;99787.00;;;;5007602;28;20248;-81
2022/10/01 04:16:34;;;;;;;0.60;0.60;;;;;17.90;99785.00;;;;5010448;28;20200;-80
2022/10/01 04:19:02;;;;;;;1.00;0.77;;;;;17.90;99795.00;;;;4994822;28;20572;-80
2022/10/01 04:21:30;;;;;;;0.65;0.60;;;;;17.90;99801.00;;;;5009392;28;20275;-79
2022/10/01 04:23:58;;;;;;;1.00;0.90;;;;;17.90;99804.00;;;;5006951;28;20197;-80
2022/10/01 04:26:27;;;;;;;1.65;0.80;;;;;18.00;99809.00;;;;5009975;28;20576;-80
2022/10/01 04:28:54;;;;;;;0.93;0.90;;;;;18.00;99808.00;;;;5009934;28;20228;-80
2022/10/01 04:31:24;;;;;;;1.50;1.00;;;;;18.00;99819.00;;;;5007870;28;20208;-80
2022/10/01 04:33:52;;;;;;;0.88;0.85;;;;;18.00;99811.00;;;;5003290;28;20228;-80
2022/10/01 04:36:20;;;;;;;1.10;1.00;;;;;18.10;99812.00;;;;4999073;28;20197;-80
2022/10/01 04:38:50;;;;;;;1.20;1.10;;;;;18.10;99820.00;;;;5006222;28;20247;-80
2022/10/01 04:41:17;;;;;;;1.10;1.00;;;;;18.10;99839.00;;;;5008153;28;20235;-80
2022/10/01 04:43:45;;;;;;;0.82;0.77;;;;;18.10;99836.00;;;;5009547;28;20208;-80
2022/10/01 04:46:13;;;;;;;1.67;0.98;;;;;18.10;99838.00;;;;5009161;28;20196;-81
2022/10/01 04:48:41;;;;;;;0.95;0.95;;;;;18.10;99838.00;;;;5007359;28;20196;-81
2022/10/01 04:51:08;;;;;;;1.38;1.10;;;;;18.20;99842.00;;;;5002783;28;20289;-79
2022/10/01 04:53:35;;;;;;;1.17;1.08;;;;;18.20;99853.00;;;;5002927;28;20220;-80
2022/10/01 04:56:03;;;;;;;2.08;1.08;;;;;18.20;99854.00;;;;4997809;28;20208;-81
2022/10/01 04:58:30;;;;;;;2.65;1.33;;;;;18.20;99858.00;;;;5005579;28;20204;-80
2022/10/01 05:00:59;;;;;;;1.33;1.23;;;;;18.20;99849.00;;;;5005601;28;20254;-80
2022/10/01 05:03:27;;;;;;;1.10;1.00;;;;;18.30;99860.00;;;;5005006;28;20213;-81
2022/10/01 05:05:54;;;;;;;1.73;1.23;;;;;18.30;99859.00;;;;5006593;28;20219;-80
2022/10/01 05:08:22;;;;;;;1.35;1.25;;;;;18.30;99860.00;;;;5004450;28;20200;-81
2022/10/01 05:10:49;;;;;;;1.05;0.95;;;;;18.30;99867.00;;;;5008277;28;20311;-80
2022/10/01 05:13:16;;;;;;;2.38;1.40;;;;;18.40;99869.00;;;;5007258;28;20224;-82
2022/10/01 05:15:44;;;;;;;1.45;1.35;;;;;18.40;99872.00;;;;5005838;28;20686;-82
2022/10/01 05:18:12;;;;;;;1.10;1.00;;;;;18.40;99877.00;;;;5002526;28;20208;-81
2022/10/01 05:20:40;;;;;;;1.73;1.55;;;;;18.40;99878.00;;;;5005396;28;20197;-81
2022/10/01 05:23:07;;;;;;;1.42;1.33;;;;;18.50;99891.00;;;;5006275;28;20215;-81
2022/10/01 05:25:34;;;;;;;1.27;1.17;;;;;18.50;99891.00;;;;5004592;28;20632;-82
2022/10/01 05:28:04;;;;;;;1.58;1.48;;;;;18.50;99890.00;;;;5003979;28;20200;-81
2022/10/01 05:30:33;;;;;;;1.50;1.40;;;;;18.50;99895.00;;;;5011233;28;20295;-81
2022/10/01 05:33:02;;;;;;;1.50;1.40;;;;;18.50;99902.00;;;;5008797;28;20228;-81
2022/10/01 05:35:31;;;;;;;2.65;2.45;;;;;18.50;99906.00;;;;5006701;28;20462;-81
2022/10/01 05:38:00;;;;;;;2.05;1.80;;;;;18.60;99913.00;;;;5004912;28;20681;-81
2022/10/01 05:40:28;;;;;;;2.42;1.50;;;;;18.60;99913.00;;;;5007491;28;20203;-81
2022/10/01 05:42:57;;;;;;;1.75;1.65;;;;;18.60;99917.00;;;;5006373;28;20212;-80
2022/10/01 05:45:24;;;;;;;1.80;1.60;;;;;18.60;99923.00;;;;5007882;28;20228;-82
2022/10/01 05:48:00;;;;;;;2.00;1.48;;;;;18.60;99937.00;;;;5009024;28;20205;-80
2022/10/01 05:50:30;;;;;;;1.45;1.35;;;;;18.70;99933.00;;;;5008728;28;20215;-81
2022/10/01 05:52:59;;;;;;;1.58;1.40;;;;;18.70;99930.00;;;;5008803;28;20770;-81
2022/10/01 05:55:33;;;;;;;1.90;1.75;;;;;18.60;99935.00;;;;5010648;28;20201;-81
2022/10/01 05:58:20;;;;;;;1.48;1.38;;;;;18.60;99938.00;;;;5009860;28;20205;-81
2022/10/01 06:03:44;;;;;;;2.20;1.75;;;;;18.80;99949.00;;;;4995760;28;20206;-81
2022/10/01 06:06:13;;;;;;;3.67;1.38;;;;;18.80;99954.00;;;;5011423;28;20543;-81
2022/10/01 06:08:45;;;;;;;1.58;1.48;;;;;18.80;99952.00;;;;5014806;28;20197;-82
2022/10/01 06:11:12;;;;;;;1.95;1.83;;;;;18.80;99950.00;;;;5020232;28;20250;-82
2022/10/01 06:13:44;;;;;;;1.63;1.52;;;;;18.80;99950.00;;;;5007648;28;20232;-82
2022/10/01 06:16:11;;;;;;;5.40;1.77;;;;;18.80;99959.00;;;;5007879;28;20634;-82
2022/10/01 06:18:42;;;;;;;2.50;1.88;;;;;18.80;99954.00;;;;5006920;28;20208;-81
2022/10/01 06:21:10;;;;;;;2.20;1.52;;;;;18.80;99959.00;;;;5011586;28;20197;-81
2022/10/01 06:23:37;;;;;;;1.70;1.55;;;;;18.80;99956.00;;;;5009249;28;20200;-81
2022/10/01 06:26:07;;;;;;;2.95;1.58;;;;;18.80;99961.00;;;;5007728;28;20193;-81
2022/10/01 06:28:34;;;;;;;2.85;1.80;;;;;18.80;99954.00;;;;5007877;28;20632;-81
2022/10/01 06:31:02;;;;;;;2.08;1.95;;;;;18.80;99961.00;;;;5008369;28;20196;-80
2022/10/01 06:33:30;;;;;;;2.60;1.52;;;;;18.80;99968.00;;;;5008193;28;20232;-80
2022/10/01 06:35:57;;;;;;;2.25;1.58;;;;;18.90;99967.00;;;;5008682;28;20205;-81
2022/10/01 06:38:25;;;;;;;3.15;1.85;;;;;18.90;99962.00;;;;5008389;28;20201;-80
2022/10/01 06:40:53;;;;;;;2.00;1.90;;;;;18.90;99968.00;;;;5005258;28;20209;-81
2022/10/01 06:43:23;;;;;;;3.85;1.55;;;;;18.90;99959.00;;;;5005077;28;20209;-81
2022/10/01 06:45:50;;;;;;;1.92;1.67;;;;;18.90;99960.00;;;;5006283;28;20663;-81
2022/10/01 06:48:19;;;;;;;2.33;1.55;;;;;19.00;99965.00;;;;5006178;28;20207;-80
2022/10/01 06:50:48;;;;;;;1.55;1.45;;;;;19.00;99964.00;;;;4997413;28;20570;-80
2022/10/01 06:53:16;;;;;;;2.20;2.00;;;;;19.00;99982.00;;;;5008029;28;20769;-80
2022/10/01 06:55:44;;;;;;;3.20;1.60;;;;;19.00;99982.00;;;;5003984;28;20667;-81
2022/10/01 06:58:14;;;;;;;1.40;1.30;;;;;19.00;99984.00;;;;5007534;28;20205;-81
2022/10/01 07:00:44;;;;;;;4.13;1.73;;;;;19.10;99983.00;;;;5000523;28;20237;-81
2022/10/01 07:03:14;;;;;;;3.78;1.52;;;;;19.10;99976.00;;;;5007625;28;20216;-81
2022/10/01 07:05:41;;;;;;;2.35;1.58;;;;;19.20;99982.00;;;;5006859;28;20193;-82
2022/10/01 07:08:09;;;;;;;1.40;1.17;;;;;19.20;99989.00;;;;5006482;28;20200;-81
2022/10/01 07:10:37;;;;;;;1.63;1.45;;;;;19.20;99985.00;;;;5027996;28;20216;-80
2022/10/01 07:13:08;;;;;;;4.30;2.08;;;;;19.20;99991.00;;;;5011161;28;20224;-80
2022/10/01 07:15:36;;;;;;;4.22;2.40;;;;;19.30;99995.00;;;;5006703;28;20189;-81
2022/10/01 07:18:08;;;;;;;2.05;1.83;;;;;19.40;99996.00;;;;5005880;28;20197;-80
2022/10/01 07:20:38;;;;;;;2.78;1.98;;;;;19.40;100002.00;;;;5007201;28;20582;-79
2022/10/01 07:23:07;;;;;;;2.03;1.83;;;;;19.50;100002.00;;;;5005711;28;20212;-79
2022/10/01 07:25:35;;;;;;;2.65;2.45;;;;;19.60;99999.00;;;;5007340;28;20292;-80
2022/10/01 07:28:04;;;;;;;2.92;1.55;;;;;19.70;99994.00;;;;5003112;28;21276;-79
2022/10/01 07:30:32;;;;;;;2.55;2.35;;;;;19.70;100007.00;;;;5007272;28;20263;-81
2022/10/01 07:32:59;;;;;;;2.35;1.80;;;;;19.80;100018.00;;;;5007856;28;20264;-81
2022/10/01 07:35:28;;;;;;;2.95;1.90;;;;;19.80;100013.00;;;;4998845;28;20201;-80
2022/10/01 07:37:55;;;;;;;2.35;1.50;;;;;19.90;100028.00;;;;5010445;28;20582;-80
2022/10/01 07:40:23;;;;;;;1.50;1.40;;;;;19.90;100030.00;;;;5010633;28;20208;-80
2022/10/01 07:42:54;;;;;;;2.70;1.52;;;;;19.90;100035.00;;;;5006510;28;20678;-80
2022/10/01 07:45:21;;;;;;;4.05;1.55;;;;;20.00;100033.00;;;;5009854;28;20721;-80
2022/10/01 07:47:54;;;;;;;3.58;1.70;;;;;20.00;100035.00;;;;5010608;28;20201;-80
2022/10/01 07:50:21;;;;;;;2.20;1.63;;;;;20.00;100038.00;;;;5010913;28;20205;-80
2022/10/01 07:52:53;;;;;;;1.67;1.38;;;;;20.00;100043.00;;;;5006098;28;20197;-80
2022/10/01 07:55:20;;;;;;;2.97;1.60;;;;;20.10;100048.00;;;;5009496;28;20267;-81
2022/10/01 07:57:52;;;;;;;4.05;1.65;;;;;20.10;100060.00;;;;5011299;28;20208;-82
2022/10/01 08:00:20;;;;;;;1.42;1.23;;;;;20.20;100059.00;;;;5005462;28;20217;-79
2022/10/01 08:02:48;;;;;;;2.28;1.60;;;;;20.30;100074.00;;;;5014277;28;20193;-80
2022/10/01 08:05:19;;;;;;;2.33;1.60;;;;;20.30;100066.00;;;;5003882;28;20247;-80
2022/10/01 08:07:47;;;;;;;4.55;1.58;;;;;20.30;100062.00;;;;5006136;28;20854;-81
2022/10/01 08:10:17;;;;;;;2.35;1.42;;;;;20.30;100055.00;;;;5007467;28;20209;-81
2022/10/01 08:12:45;;;;;;;2.28;1.52;;;;;20.40;100056.00;;;;5009940;28;20197;-81
2022/10/01 08:15:14;;;;;;;3.63;1.52;;;;;20.50;100054.00;;;;5006293;28;20228;-81
2022/10/01 08:17:42;;;;;;;2.13;1.63;;;;;20.50;100069.00;;;;5010937;28;20280;-80
2022/10/01 08:20:11;;;;;;;2.08;1.58;;;;;20.50;100087.00;;;;5007924;28;20208;-80
2022/10/01 08:22:38;;;;;;;2.83;1.55;;;;;20.50;100094.00;;;;5008954;28;20210;-79
2022/10/01 08:25:07;;;;;;;6.20;2.10;;;;;20.50;100086.00;;;;5007668;28;20204;-80
2022/10/01 08:27:36;;;;;;;2.72;1.83;;;;;20.50;100087.00;;;;5009167;28;20205;-79
2022/10/01 08:30:03;;;;;;;1.38;1.27;;;;;20.50;100084.00;;;;4997888;28;20225;-79
2022/10/01 08:32:31;;;;;;;3.47;1.48;;;;;20.50;100091.00;;;;5002489;28;20240;-81
2022/10/01 08:35:00;;;;;;;1.95;1.42;;;;;20.50;100092.00;;;;5006063;28;20264;-82
2022/10/01 08:37:28;;;;;;;1.40;1.30;;;;;20.50;100103.00;;;;5009059;28;20197;-82
2022/10/01 08:39:56;;;;;;;1.83;1.13;;;;;20.50;100096.00;;;;5008996;28;20208;-82
2022/10/01 08:42:43;;;;;;;1.73;1.40;;;;;20.40;100094.00;;;;5009877;28;20219;-79
2022/10/01 08:45:16;;;;;;;2.58;1.42;;;;;20.50;100100.00;;;;5008873;28;20215;-81
2022/10/01 08:47:48;;;;;;;4.00;1.95;;;;;20.50;100109.00;;;;5007314;28;20294;-82
2022/10/01 08:50:25;;;;;;;2.50;1.95;;;;;20.50;100110.00;;;;5008462;28;20197;-80
2022/10/01 08:52:55;;;;;;;5.72;2.30;;;;;20.50;100114.00;;;;5008651;28;20720;-81
2022/10/01 08:55:26;;;;;;;2.28;1.80;;;;;20.40;100113.00;;;;5000608;28;20220;-82
2022/10/01 08:57:58;;;;;;;2.45;1.17;;;;;20.40;100110.00;;;;5008186;28;20215;-82
2022/10/01 09:00:27;;;;;;;5.22;1.75;;;;;20.40;100123.00;;;;5007905;28;20641;-84
2022/10/01 09:02:56;;;;;;;2.47;1.10;;;;;20.40;100139.00;;;;5009416;28;20197;-82
2022/10/01 09:05:31;;;;;;;2.67;1.20;;;;;20.40;100141.00;;;;5009218;28;20640;-81
2022/10/01 09:08:14;;;;;;;1.55;1.00;;;;;20.40;100137.00;;;;5007124;28;20204;-81
2022/10/01 09:10:45;;;;;;;6.57;0.90;;;;;20.50;100143.00;;;;4999006;28;20698;-82
2022/10/01 09:13:29;;;;;;;2.72;1.00;;;;;20.50;100144.00;;;;5013814;28;20204;-81
2022/10/01 09:16:02;;;;;;;2.28;1.17;;;;;20.70;100147.00;;;;5005279;28;20513;-82
2022/10/01 09:18:44;;;;;;;1.83;0.98;;;;;20.70;100149.00;;;;5006816;28;20208;-81
2022/10/01 09:21:17;;;;;;;1.73;0.77;;;;;20.80;100148.00;;;;5007848;28;20196;-84
2022/10/01 09:23:55;;;;;;;3.63;1.00;;;;;21.00;100153.00;;;;5006831;28;20205;-81
2022/10/01 09:26:23;;;;;;;1.33;0.77;;;;;21.10;100156.00;;;;5007844;28;20197;-81
2022/10/01 09:28:53;;;;;;;3.15;0.75;;;;;21.20;100162.00;;;;5008783;28;20542;-82
2022/10/01 09:31:26;;;;;;;2.95;1.10;;;;;21.30;100162.00;;;;5006077;28;20251;-81
2022/10/01 09:33:58;;;;;;;3.58;1.35;;;;;21.40;100160.00;;;;5008095;28;20750;-81
2022/10/01 09:36:32;;;;;;;1.45;0.50;;;;;21.60;100159.00;;;;5009285;28;20615;-81
2022/10/01 09:39:10;;;;;;;2.80;0.73;;;;;21.70;100158.00;;;;5008746;28;20189;-80
2022/10/01 09:41:37;;;;;;;3.90;0.75;;;;;21.80;100157.00;;;;5007431;28;20207;-83
2022/10/01 09:44:15;;;;;;;4.38;0.88;;;;;21.90;100158.00;;;;5007514;28;20292;-82
2022/10/01 09:46:44;;;;;;;3.85;1.00;;;;;22.00;100166.00;;;;5008975;28;20196;-81
2022/10/01 09:49:27;;;;;;;3.53;0.68;;;;;22.00;100172.00;;;;5007956;28;20251;-81
2022/10/01 09:52:00;;;;;;;9.32;0.75;;;;;22.00;100176.00;;;;5007242;28;20213;-81
2022/10/01 09:54:35;;;;;;;4.40;0.93;;;;;22.00;100182.00;;;;5013639;28;20220;-82
2022/10/01 09:57:07;;;;;;;3.95;0.90;;;;;22.00;100189.00;;;;5027525;28;20196;-81
2022/10/01 09:59:44;;;;;;;4.82;0.52;;;;;22.10;100191.00;;;;5005085;28;20236;-82
2022/10/01 10:02:19;;;;;;;4.93;1.25;;;;;22.10;100199.00;;;;5008652;28;20208;-83
2022/10/01 10:04:46;;;;;;;4.88;1.08;;;;;22.20;100190.00;;;;5006949;28;20652;-83
2022/10/01 10:07:18;;;;;;;4.57;1.02;;;;;22.10;100196.00;;;;5008365;28;20208;-81
2022/10/01 10:09:46;;;;;;;5.40;0.93;;;;;22.10;100201.00;;;;5007312;28;20239;-82
2022/10/01 10:12:34;;;;;;;4.13;1.05;;;;;22.00;100209.00;;;;5007506;28;20206;-82
2022/10/01 10:15:15;;;;;;;2.65;0.63;;;;;22.00;100220.00;;;;4999834;28;20225;-83
2022/10/01 10:17:45;;;;;;;6.35;0.60;;;;;22.10;100220.00;;;;5005399;28;20578;-82
2022/10/01 10:20:23;;;;;;;3.40;0.82;;;;;22.10;100217.00;;;;5006939;28;20208;-82
2022/10/01 10:22:50;;;;;;;5.80;0.90;;;;;22.30;100228.00;;;;5002309;28;20209;-83
2022/10/01 10:25:22;;;;;;;5.88;1.00;;;;;22.30;100233.00;;;;4996818;28;20710;-83
2022/10/01 10:27:55;;;;;;;7.03;0.95;;;;;22.40;100230.00;;;;5010159;28;20197;-82
2022/10/01 10:30:25;;;;;;;4.78;0.82;;;;;22.50;100253.00;;;;4996686;28;20216;-83
2022/10/01 10:32:53;;;;;;;2.05;0.60;;;;;22.60;100253.00;;;;5007718;28;20216;-84
2022/10/01 10:35:25;;;;;;;4.00;0.82;;;;;22.60;100256.00;;;;5003207;28;20232;-81
2022/10/01 10:37:54;;;;;;;4.00;0.73;;;;;22.60;100263.00;;;;5008811;28;20212;-81
2022/10/01 10:40:24;;;;;;;5.82;0.82;;;;;22.60;100266.00;;;;5003762;28;20202;-81
2022/10/01 10:42:53;;;;;;;4.28;0.75;;;;;22.70;100265.00;;;;5006231;28;20197;-81
2022/10/01 10:45:29;;;;;;;2.67;0.68;;;;;22.70;100265.00;;;;5005579;28;20212;-82
2022/10/01 10:47:57;;;;;;;5.55;0.90;;;;;22.80;100284.00;;;;5005877;28;20667;-79
2022/10/01 10:50:30;;;;;;;3.90;0.80;;;;;22.90;100281.00;;;;4992682;28;20208;-79
2022/10/01 10:52:58;;;;;;;26.38;1.00;;;;;23.00;100289.00;;;;5006219;28;20208;-81
2022/10/01 10:55:29;;;;;;;4.00;0.52;;;;;23.00;100271.00;;;;5007278;28;20224;-81
2022/10/01 10:58:06;;;;;;;5.90;0.90;;;;;23.10;100278.00;;;;5007001;28;20196;-83
2022/10/01 11:00:44;;;;;;;4.20;0.80;;;;;23.10;100287.00;;;;5008858;28;20232;-83
2022/10/01 11:03:15;;;;;;;4.38;0.95;;;;;23.10;100304.00;;;;5010806;28;20254;-83
2022/10/01 11:05:43;;;;;;;4.65;0.70;;;;;23.10;100298.00;;;;5006122;28;20219;-82
2022/10/01 11:08:19;;;;;;;4.65;0.55;;;;;23.00;100310.00;;;;5010602;28;20656;-85
2022/10/01 11:10:56;;;;;;;3.70;1.08;;;;;23.00;100319.00;;;;5011763;28;20232;-84
2022/10/01 11:13:42;;;;;;;4.15;0.80;;;;;22.90;100323.00;;;;5007475;28;20546;-83
2022/10/01 11:16:42;;;;;;;5.95;1.10;;;;;22.80;100326.00;;;;5004898;28;20228;-83
2022/10/01 11:19:25;;;;;;;4.80;1.10;;;;;22.90;100317.00;;;;4989834;28;20263;-83
2022/10/01 11:22:07;;;;;;;3.88;1.10;;;;;22.90;100334.00;;;;5005528;28;20200;-83
2022/10/01 11:25:08;;;;;;;2.75;0.60;;;;;22.90;100335.00;;;;5005416;28;20209;-84
2022/10/01 11:27:45;;;;;;;2.15;0.75;;;;;23.00;100333.00;;;;5001185;28;20205;-83
2022/10/01 11:30:20;;;;;;;4.18;0.85;;;;;23.10;100341.00;;;;4997060;28;20938;-81
2022/10/01 11:33:02;;;;;;;2.72;0.60;;;;;23.10;100346.00;;;;5005593;28;20199;-84
2022/10/01 11:35:54;;;;;;;3.75;1.05;;;;;23.20;100344.00;;;;5010081;28;20312;-82
2022/10/01 11:38:51;;;;;;;5.85;1.00;;;;;23.20;100352.00;;;;5012627;28;20216;-82
2022/10/01 11:41:33;;;;;;;12.70;1.40;;;;;23.30;100356.00;;;;5006969;28;20698;-83
2022/10/01 11:44:06;;;;;;;3.92;0.47;;;;;23.40;100358.00;;;;5007663;28;20207;-82
2022/10/01 11:46:57;;;;;;;2.88;0.60;;;;;23.40;100368.00;;;;5001689;28;20192;-84
2022/10/01 11:49:53;;;;;;;4.35;0.70;;;;;23.40;100377.00;;;;4998530;28;20884;-83
2022/10/01 11:52:37;;;;;;;3.30;0.80;;;;;23.40;100390.00;;;;5004977;28;20321;-83
2022/10/01 12:00:59;;;;;;;2.17;0.63;;;;;23.30;100392.00;;;;5008523;28;20267;-83
2022/10/01 12:03:35;;;;;;;5.93;1.27;;;;;23.30;100404.00;;;;5006671;28;20554;-82
2022/10/01 12:06:08;;;;;;;5.28;0.90;;;;;23.20;100404.00;;;;5008872;28;20292;-85
2022/10/01 12:08:37;;;;;;;3.25;0.85;;;;;23.10;100414.00;;;;5019787;28;20209;-84
2022/10/01 12:11:11;;;;;;;3.67;0.95;;;;;23.10;100412.00;;;;5006144;28;20217;-83
2022/10/01 12:13:44;;;;;;;2.45;0.80;;;;;23.00;100409.00;;;;5006981;28;20189;-83
2022/10/01 12:16:18;;;;;;;3.05;0.60;;;;;23.00;100413.00;;;;5008283;28;20884;-84
2022/10/01 12:18:51;;;;;;;1.60;0.52;;;;;22.90;100415.00;;;;5029263;28;20558;-82
2022/10/01 12:21:26;;;;;;;6.88;1.13;;;;;22.80;100419.00;;;;4994532;28;20206;-83
2022/10/01 12:23:58;;;;;;;3.45;0.57;;;;;22.80;100413.00;;;;5010498;28;20205;-83
2022/10/01 12:26:38;;;;;;;3.20;0.95;;;;;22.80;100422.00;;;;5009582;28;20627;-83
2022/10/01 12:29:12;;;;;;;3.80;0.73;;;;;22.80;100428.00;;;;5005779;28;20200;-82
2022/10/01 12:31:49;;;;;;;3.60;0.73;;;;;22.80;100427.00;;;;5005908;28;20199;-84
2022/10/01 12:34:25;;;;;;;4.57;0.85;;;;;22.80;100420.00;;;;5007594;28;20649;-82
2022/10/01 12:37:09;;;;;;;4.05;0.90;;;;;22.80;100441.00;;;;5004764;28;20586;-82
2022/10/01 12:39:47;;;;;;;3.20;0.70;;;;;22.70;100449.00;;;;5003279;28;20212;-81
2022/10/01 12:42:37;;;;;;;1.98;0.65;;;;;22.60;100451.00;;;;5013848;28;20203;-83